createdAt,value
2019-01-29T00:00:41.390Z,99344.73
2019-01-29T00:02:44.099Z,99345.22
2019-01-29T00:04:45.618Z,99355.95
2019-01-29T00:06:47.134Z,99359.03
2019-01-29T00:08:48.497Z,99362.56
2019-01-29T00:10:49.866Z,99365.81
2019-01-29T00:12:51.303Z,99370.42
2019-01-29T00:14:52.664Z,99371.75
2019-01-29T00:16:54.020Z,99374.56
2019-01-29T00:18:55.462Z,99384.23
2019-01-29T00:20:56.842Z,99383.84
2019-01-29T00:22:58.235Z,99393.50
2019-01-29T00:24:59.867Z,99392.09
2019-01-29T00:27:01.323Z,99398.89
2019-01-29T00:29:03.016Z,99396.84
2019-01-29T00:31:05.100Z,99402.62
2019-01-29T00:33:06.477Z,99400.05
2019-01-29T00:35:08.171Z,99403.52
2019-01-29T00:37:09.611Z,99404.94
2019-01-29T00:39:11.214Z,99407.84
2019-01-29T00:41:14.506Z,99409.75
2019-01-29T00:43:15.970Z,99419.28
2019-01-29T00:45:17.563Z,99427.81
2019-01-29T00:47:18.943Z,99426.23
2019-01-29T00:49:20.382Z,99424.97
2019-01-29T00:51:21.764Z,99421.66
2019-01-29T00:53:23.180Z,99422.40
2019-01-29T00:55:24.603Z,99430.99
2019-01-29T00:57:25.978Z,99436.55
2019-01-29T00:59:27.576Z,99436.35
2019-01-29T01:01:28.960Z,99445.59
2019-01-29T01:03:30.557Z,99444.66
2019-01-29T01:05:31.972Z,99457.04
2019-01-29T01:07:33.681Z,99457.50
2019-01-29T01:09:35.085Z,99462.13
2019-01-29T01:11:36.479Z,99468.61
2019-01-29T01:13:37.915Z,99468.70
2019-01-29T01:15:39.402Z,99470.16
2019-01-29T01:17:40.887Z,99478.27
2019-01-29T01:19:42.299Z,99483.05
2019-01-29T01:21:43.669Z,99482.60
2019-01-29T01:23:45.057Z,99482.40
2019-01-29T01:25:46.479Z,99484.32
2019-01-29T01:27:47.926Z,99490.66
2019-01-29T01:29:49.319Z,99491.88
2019-01-29T01:31:50.730Z,99502.31
2019-01-29T01:33:52.141Z,99499.48
2019-01-29T01:35:53.603Z,99502.10
2019-01-29T01:37:55.084Z,99501.99
2019-01-29T01:39:56.499Z,99508.59
2019-01-29T01:41:57.990Z,99511.07
2019-01-29T01:43:59.376Z,99514.52
2019-01-29T01:46:00.756Z,99515.13
2019-01-29T01:48:02.145Z,99517.90
2019-01-29T01:50:06.566Z,99525.48
2019-01-29T01:52:07.933Z,99531.02
2019-01-29T01:54:09.597Z,99528.82
2019-01-29T01:56:10.973Z,99534.16
2019-01-29T01:58:12.467Z,99538.03
2019-01-29T02:00:16.852Z,99541.47
2019-01-29T02:02:18.255Z,99546.64
2019-01-29T02:04:19.613Z,99548.14
2019-01-29T02:06:21.028Z,99557.52
2019-01-29T02:08:22.409Z,99559.08
2019-01-29T02:10:27.621Z,99578.19
2019-01-29T02:12:28.997Z,99572.93
2019-01-29T02:14:30.368Z,99572.38
2019-01-29T02:16:31.811Z,99584.38
2019-01-29T02:18:33.185Z,99582.27
2019-01-29T02:20:34.544Z,99584.19
2019-01-29T02:22:35.957Z,99590.62
2019-01-29T02:24:37.331Z,99594.12
2019-01-29T02:26:38.706Z,99594.75
2019-01-29T02:28:40.109Z,99606.42
2019-01-29T02:30:41.525Z,99604.28
2019-01-29T02:32:44.785Z,99614.45
2019-01-29T02:34:46.172Z,99619.28
2019-01-29T02:36:47.659Z,99620.37
2019-01-29T02:38:49.041Z,99620.81
2019-01-29T02:40:50.443Z,99628.91
2019-01-29T02:42:52.162Z,99638.36
2019-01-29T02:44:53.521Z,99641.69
2019-01-29T02:46:54.900Z,99639.03
2019-01-29T02:48:56.308Z,99645.45
2019-01-29T02:50:57.725Z,99641.31
2019-01-29T02:52:59.149Z,99645.86
2019-01-29T02:55:00.647Z,99650.84
2019-01-29T02:57:02.044Z,99656.95
2019-01-29T02:59:03.687Z,99655.56
2019-01-29T03:01:05.077Z,99661.06
2019-01-29T03:03:06.477Z,99657.66
2019-01-29T03:05:10.893Z,99663.33
2019-01-29T03:07:12.289Z,99678.84
2019-01-29T03:09:13.793Z,99674.98
2019-01-29T03:11:15.181Z,99690.17
2019-01-29T03:13:16.772Z,99686.48
2019-01-29T03:15:27.954Z,99687.77
2019-01-29T03:17:29.274Z,99691.98
2019-01-29T03:19:30.754Z,99698.92
2019-01-29T03:21:32.129Z,99702.43
2019-01-29T03:23:33.626Z,99703.38
2019-01-29T03:25:35.276Z,99706.36
2019-01-29T03:27:36.859Z,99709.39
2019-01-29T03:29:38.224Z,99711.29
2019-01-29T03:31:39.647Z,99712.36
2019-01-29T03:33:41.439Z,99715.09
2019-01-29T03:35:42.795Z,99714.55
2019-01-29T03:37:44.377Z,99715.84
2019-01-29T03:39:45.799Z,99722.55
2019-01-29T03:41:47.267Z,99721.09
2019-01-29T03:43:48.673Z,99736.06
2019-01-29T03:45:50.038Z,99737.98
2019-01-29T03:47:51.548Z,99738.69
2019-01-29T03:49:52.920Z,99743.69
2019-01-29T03:51:54.293Z,99751.78
2019-01-29T03:53:55.712Z,99749.08
2019-01-29T03:55:57.073Z,99753.66
2019-01-29T03:57:58.456Z,99765.73
2019-01-29T03:59:59.970Z,99761.34
2019-01-29T04:02:01.397Z,99780.69
2019-01-29T04:04:02.909Z,99780.23
2019-01-29T04:06:04.272Z,99780.77
2019-01-29T04:08:05.671Z,99790.10
2019-01-29T04:10:11.338Z,99788.55
2019-01-29T04:12:12.750Z,99800.30
2019-01-29T04:14:14.400Z,99798.34
2019-01-29T04:16:15.777Z,99800.16
2019-01-29T04:18:17.344Z,99805.69
2019-01-29T04:20:19.455Z,99804.19
2019-01-29T04:22:20.838Z,99809.20
2019-01-29T04:24:22.244Z,99815.53
2019-01-29T04:26:23.664Z,99813.75
2019-01-29T04:28:25.024Z,99815.37
2019-01-29T04:30:26.457Z,99818.69
2019-01-29T04:32:27.825Z,99819.65
2019-01-29T04:34:29.201Z,99826.75
2019-01-29T04:36:30.610Z,99836.58
2019-01-29T04:38:32.008Z,99831.19
2019-01-29T04:40:33.379Z,99834.30
2019-01-29T04:42:34.747Z,99836.65
2019-01-29T04:44:36.164Z,99842.81
2019-01-29T04:46:37.535Z,99847.44
2019-01-29T04:48:38.932Z,99855.02
2019-01-29T04:50:40.343Z,99853.12
2019-01-29T04:52:41.822Z,99855.86
2019-01-29T04:54:43.247Z,99860.75
2019-01-29T04:56:44.612Z,99863.17
2019-01-29T04:58:46.035Z,99865.09
2019-01-29T05:00:47.483Z,99862.36
2019-01-29T05:02:49.097Z,99873.92
2019-01-29T05:04:50.466Z,99874.08
2019-01-29T05:06:51.839Z,99873.20
2019-01-29T05:08:53.213Z,99872.19
2019-01-29T05:10:54.609Z,99874.89
2019-01-29T05:12:56.006Z,99880.09
2019-01-29T05:14:57.375Z,99877.17
2019-01-29T05:16:58.742Z,99876.30
2019-01-29T05:19:00.124Z,99874.88
2019-01-29T05:21:01.517Z,99879.62
2019-01-29T05:23:03.189Z,99876.80
2019-01-29T05:25:07.617Z,99885.98
2019-01-29T05:27:08.999Z,99892.23
2019-01-29T05:29:10.420Z,99895.76
2019-01-29T05:31:11.759Z,99896.77
2019-01-29T05:33:13.187Z,99896.49
2019-01-29T05:35:14.760Z,99899.34
2019-01-29T05:37:16.169Z,99899.10
2019-01-29T05:39:17.535Z,99907.99
2019-01-29T05:41:18.963Z,99910.37
2019-01-29T05:43:20.365Z,99912.03
2019-01-29T05:45:22.069Z,99918.71
2019-01-29T05:47:23.649Z,99920.18
2019-01-29T05:49:25.016Z,99919.00
2019-01-29T05:51:26.405Z,99932.45
2019-01-29T05:53:27.880Z,99932.34
2019-01-29T05:55:29.277Z,99934.61
2019-01-29T05:57:30.648Z,99939.30
2019-01-29T05:59:32.049Z,99945.66
2019-01-29T06:01:33.410Z,99942.53
2019-01-29T06:03:36.711Z,99944.09
2019-01-29T06:05:38.262Z,99948.13
2019-01-29T06:07:39.900Z,99953.13
2019-01-29T06:09:41.267Z,99962.83
2019-01-29T06:11:42.704Z,99964.41
2019-01-29T06:13:44.056Z,99970.33
2019-01-29T06:15:45.450Z,99964.13
2019-01-29T06:17:46.828Z,99971.13
2019-01-29T06:19:48.199Z,99973.77
2019-01-29T06:21:49.623Z,99982.89
2019-01-29T06:23:50.971Z,99986.02
2019-01-29T06:25:52.339Z,99986.86
2019-01-29T06:27:53.830Z,99988.12
2019-01-29T06:29:55.192Z,99995.59
2019-01-29T06:31:56.550Z,99999.81
2019-01-29T06:33:57.946Z,100001.38
2019-01-29T06:35:59.311Z,99999.97
2019-01-29T06:38:00.683Z,100006.48
2019-01-29T06:40:05.715Z,100011.77
2019-01-29T06:42:07.142Z,100008.48
2019-01-29T06:44:08.513Z,100019.73
2019-01-29T06:46:09.871Z,100022.48
2019-01-29T06:48:11.274Z,100032.91
2019-01-29T06:50:16.758Z,100035.77
2019-01-29T06:52:18.166Z,100036.25
2019-01-29T06:54:19.546Z,100036.41
2019-01-29T06:56:21.181Z,100040.99
2019-01-29T06:58:22.596Z,100049.28
2019-01-29T07:00:28.064Z,100050.97
2019-01-29T07:02:29.467Z,100052.30
2019-01-29T07:04:30.839Z,100058.83
2019-01-29T07:06:32.202Z,100053.72
2019-01-29T07:08:33.614Z,100052.31
2019-01-29T07:10:35.223Z,100058.67
2019-01-29T07:12:36.593Z,100057.81
2019-01-29T07:14:37.964Z,100058.13
2019-01-29T07:16:41.307Z,100062.17
2019-01-29T07:18:44.596Z,100071.52
2019-01-29T07:20:46.137Z,100071.61
2019-01-29T07:22:47.745Z,100074.68
2019-01-29T07:24:49.112Z,100080.95
2019-01-29T07:26:50.524Z,100080.84
2019-01-29T07:28:51.936Z,100080.78
2019-01-29T07:30:53.299Z,100086.38
2019-01-29T07:32:54.710Z,100084.06
2019-01-29T07:34:56.074Z,100089.73
2019-01-29T07:36:57.471Z,100090.11
2019-01-29T07:38:58.874Z,100091.89
2019-01-29T07:41:00.248Z,100091.56
2019-01-29T07:43:01.606Z,100093.77
2019-01-29T07:45:08.509Z,100094.25
2019-01-29T07:47:09.921Z,100096.15
2019-01-29T07:49:11.318Z,100094.47
2019-01-29T07:51:12.674Z,100094.59
2019-01-29T07:53:14.098Z,100087.45
2019-01-29T07:55:15.594Z,100089.23
2019-01-29T07:57:16.956Z,100085.80
2019-01-29T07:59:25.216Z,100087.23
2019-01-29T08:01:21.665Z,100083.63
2019-01-29T08:03:23.068Z,100088.28
2019-01-29T08:05:24.464Z,100092.20
2019-01-29T08:07:25.909Z,100102.25
2019-01-29T08:09:27.281Z,100099.71
2019-01-29T08:11:28.650Z,100107.48
2019-01-29T08:13:30.044Z,100109.52
2019-01-29T08:15:31.462Z,100107.36
2019-01-29T08:17:32.922Z,100100.98
2019-01-29T08:19:34.327Z,100100.52
2019-01-29T08:21:35.697Z,100106.19
2019-01-29T08:23:37.062Z,100106.20
2019-01-29T08:25:38.462Z,100114.18
2019-01-29T08:27:39.862Z,100111.00
2019-01-29T08:29:41.234Z,100112.62
2019-01-29T08:31:42.651Z,100117.74
2019-01-29T08:33:44.009Z,100118.00
2019-01-29T08:35:45.390Z,100117.45
2019-01-29T08:37:46.802Z,100111.94
2019-01-29T08:39:48.170Z,100124.40
2019-01-29T08:41:49.583Z,100122.28
2019-01-29T08:43:50.955Z,100127.73
2019-01-29T08:45:54.168Z,100130.18
2019-01-29T08:47:55.628Z,100132.78
2019-01-29T08:49:57.011Z,100137.30
2019-01-29T08:51:58.426Z,100141.09
2019-01-29T08:53:59.797Z,100146.20
2019-01-29T08:56:01.266Z,100142.24
2019-01-29T08:58:02.869Z,100147.52
2019-01-29T09:00:12.748Z,100140.12
2019-01-29T09:02:14.142Z,100144.06
2019-01-29T09:04:15.510Z,100145.19
2019-01-29T09:06:17.121Z,100146.89
2019-01-29T09:08:18.631Z,100150.47
2019-01-29T09:10:21.411Z,100150.36
2019-01-29T09:12:23.009Z,100156.73
2019-01-29T09:14:24.493Z,100156.48
2019-01-29T09:16:25.874Z,100154.41
2019-01-29T09:18:27.286Z,100159.47
2019-01-29T09:20:28.650Z,100163.86
2019-01-29T09:22:30.022Z,100160.00
2019-01-29T09:24:31.428Z,100159.56
2019-01-29T09:26:32.803Z,100159.45
2019-01-29T09:28:34.208Z,100163.76
2019-01-29T09:30:35.584Z,100166.44
2019-01-29T09:32:37.078Z,100160.79
2019-01-29T09:34:38.496Z,100165.59
2019-01-29T09:36:40.064Z,100166.14
2019-01-29T09:38:41.463Z,100167.26
2019-01-29T09:40:42.836Z,100173.84
2019-01-29T09:42:44.305Z,100166.98
2019-01-29T09:44:45.720Z,100172.29
2019-01-29T09:46:47.087Z,100173.16
2019-01-29T09:48:48.455Z,100179.72
2019-01-29T09:50:49.975Z,100182.72
2019-01-29T09:52:52.544Z,100185.58
2019-01-29T09:54:53.912Z,100184.64
2019-01-29T09:56:55.317Z,100183.86
2019-01-29T09:58:56.696Z,100179.33
2019-01-29T10:00:58.058Z,100184.72
2019-01-29T10:02:59.572Z,100181.31
2019-01-29T10:05:00.977Z,100183.98
2019-01-29T10:07:02.696Z,100185.12
2019-01-29T10:09:05.903Z,100178.33
2019-01-29T10:11:07.275Z,100181.56
2019-01-29T10:13:08.798Z,100181.00
2019-01-29T10:15:18.385Z,100183.73
2019-01-29T10:17:20.385Z,100181.31
2019-01-29T10:19:21.823Z,100186.98
2019-01-29T10:21:23.293Z,100183.48
2019-01-29T10:23:24.674Z,100179.66
2019-01-29T10:25:26.078Z,100172.58
2019-01-29T10:27:27.476Z,100173.75
2019-01-29T10:29:28.848Z,100169.75
2019-01-29T10:31:30.229Z,100166.91
2019-01-29T10:33:31.636Z,100168.09
2019-01-29T10:35:33.038Z,100166.98
2019-01-29T10:37:34.426Z,100168.69
2019-01-29T10:39:35.832Z,100166.39
2019-01-29T10:41:37.311Z,100170.45
2019-01-29T10:43:38.717Z,100164.20
2019-01-29T10:45:40.313Z,100161.54
2019-01-29T10:47:41.697Z,100162.20
2019-01-29T10:49:43.057Z,100169.13
2019-01-29T10:51:44.462Z,100163.80
2019-01-29T10:53:45.841Z,100167.24
2019-01-29T10:55:47.760Z,100169.10
2019-01-29T10:57:49.339Z,100167.82
2019-01-29T10:59:50.714Z,100163.31
2019-01-29T11:01:52.129Z,100166.91
2019-01-29T11:03:53.976Z,100164.41
2019-01-29T11:05:55.443Z,100165.06
2019-01-29T11:07:56.816Z,100166.28
2019-01-29T11:09:58.225Z,100164.57
2019-01-29T11:11:59.649Z,100163.99
2019-01-29T11:14:01.030Z,100162.15
2019-01-29T11:16:03.200Z,100160.28
2019-01-29T11:18:08.921Z,100161.05
2019-01-29T11:20:14.704Z,100164.03
2019-01-29T11:22:16.083Z,100163.21
2019-01-29T11:24:17.502Z,100161.36
2019-01-29T11:26:18.876Z,100164.67
2019-01-29T11:28:20.364Z,100160.72
2019-01-29T11:30:31.777Z,100162.09
2019-01-29T11:32:33.170Z,100161.78
2019-01-29T11:34:34.531Z,100158.58
2019-01-29T11:36:36.143Z,100156.75
2019-01-29T11:38:37.509Z,100161.50
2019-01-29T11:40:38.993Z,100165.36
2019-01-29T11:42:40.433Z,100167.70
2019-01-29T11:44:41.814Z,100170.00
2019-01-29T11:46:43.183Z,100170.39
2019-01-29T11:48:44.578Z,100169.23
2019-01-29T11:50:45.943Z,100171.91
2019-01-29T11:52:47.418Z,100177.64
2019-01-29T11:54:50.353Z,100174.47
2019-01-29T11:56:51.943Z,100175.10
2019-01-29T11:58:53.413Z,100176.97
2019-01-29T12:00:59.605Z,100175.04
2019-01-29T12:03:00.974Z,100173.30
2019-01-29T12:05:04.495Z,100165.86
2019-01-29T12:07:05.871Z,100167.49
2019-01-29T12:09:07.354Z,100168.28
2019-01-29T12:11:08.773Z,100169.34
2019-01-29T12:13:10.181Z,100175.21
2019-01-29T12:15:18.182Z,100181.30
2019-01-29T12:17:19.560Z,100177.48
2019-01-29T12:19:20.976Z,100174.88
2019-01-29T12:21:22.352Z,100173.11
2019-01-29T12:23:24.081Z,100180.54
2019-01-29T12:25:25.453Z,100179.47
2019-01-29T12:27:26.904Z,100180.25
2019-01-29T12:29:28.331Z,100180.72
2019-01-29T12:31:29.766Z,100178.63
2019-01-29T12:33:31.551Z,100175.75
2019-01-29T12:35:33.026Z,100175.52
2019-01-29T12:37:34.519Z,100180.33
2019-01-29T12:39:35.984Z,100177.15
2019-01-29T12:41:37.355Z,100179.36
2019-01-29T12:43:38.746Z,100174.94
2019-01-29T12:45:40.133Z,100173.02
2019-01-29T12:47:41.642Z,100174.05
2019-01-29T12:49:43.067Z,100173.55
2019-01-29T12:51:46.519Z,100170.58
2019-01-29T12:53:48.040Z,100169.25
2019-01-29T12:55:49.457Z,100165.75
2019-01-29T12:57:50.820Z,100158.25
2019-01-29T12:59:52.437Z,100164.80
2019-01-29T13:01:53.775Z,100166.34
2019-01-29T13:03:55.160Z,100162.36
2019-01-29T13:05:56.605Z,100164.09
2019-01-29T13:07:58.173Z,100160.03
2019-01-29T13:09:59.570Z,100158.13
2019-01-29T13:12:01.160Z,100150.91
2019-01-29T13:14:03.839Z,100151.98
2019-01-29T13:16:05.239Z,100147.31
2019-01-29T13:18:06.838Z,100152.27
2019-01-29T13:20:10.314Z,100145.90
2019-01-29T13:22:12.054Z,100145.88
2019-01-29T13:24:13.514Z,100147.12
2019-01-29T13:26:14.851Z,100151.47
2019-01-29T13:28:16.407Z,100150.41
2019-01-29T13:30:26.178Z,100153.56
2019-01-29T13:32:27.559Z,100151.50
2019-01-29T13:34:29.087Z,100149.64
2019-01-29T13:36:30.572Z,100151.98
2019-01-29T13:38:32.086Z,100147.90
2019-01-29T13:40:33.753Z,100151.15
2019-01-29T13:42:35.255Z,100148.23
2019-01-29T13:44:36.637Z,100152.30
2019-01-29T13:46:38.116Z,100147.98
2019-01-29T13:48:39.571Z,100149.77
2019-01-29T13:50:45.982Z,100149.52
2019-01-29T13:52:47.482Z,100147.12
2019-01-29T13:54:48.901Z,100149.84
2019-01-29T13:56:50.319Z,100146.86
2019-01-29T13:58:51.751Z,100147.19
2019-01-29T14:00:53.188Z,100149.84
2019-01-29T14:02:54.608Z,100148.81
2019-01-29T14:04:55.983Z,100148.87
2019-01-29T14:06:57.456Z,100152.87
2019-01-29T14:08:58.834Z,100151.27
2019-01-29T14:11:00.305Z,100147.74
2019-01-29T14:13:01.814Z,100149.43
2019-01-29T14:15:08.505Z,100153.09
2019-01-29T14:17:09.963Z,100148.42
2019-01-29T14:19:11.344Z,100152.75
2019-01-29T14:21:12.734Z,100150.56
2019-01-29T14:23:15.241Z,100151.09
2019-01-29T14:25:16.660Z,100154.43
2019-01-29T14:27:18.033Z,100153.13
2019-01-29T14:29:19.679Z,100146.91
2019-01-29T14:31:21.011Z,100149.62
2019-01-29T14:33:22.423Z,100149.35
2019-01-29T14:35:23.838Z,100152.60
2019-01-29T14:37:25.209Z,100152.79
2019-01-29T14:39:26.971Z,100151.12
2019-01-29T14:41:28.504Z,100156.30
2019-01-29T14:43:37.956Z,100153.46
2019-01-29T14:45:39.448Z,100154.11
2019-01-29T14:47:41.120Z,100153.65
2019-01-29T14:49:42.468Z,100151.80
2019-01-29T14:51:43.870Z,100151.84
2019-01-29T14:53:45.309Z,100149.55
2019-01-29T14:55:46.714Z,100150.13
2019-01-29T14:57:48.176Z,100144.23
2019-01-29T14:59:49.556Z,100145.47
2019-01-29T15:01:50.954Z,100142.97
2019-01-29T15:03:52.358Z,100144.75
2019-01-29T15:05:53.826Z,100144.77
2019-01-29T15:07:55.200Z,100145.87
2019-01-29T15:09:56.582Z,100145.37
2019-01-29T15:11:58.052Z,100145.55
2019-01-29T15:13:59.446Z,100144.89
2019-01-29T15:16:11.586Z,100148.41
2019-01-29T15:18:17.925Z,100143.02
2019-01-29T15:20:19.276Z,100147.75
2019-01-29T15:22:20.780Z,100150.61
2019-01-29T15:24:22.186Z,100148.94
2019-01-29T15:26:23.595Z,100147.00
2019-01-29T15:28:24.966Z,100146.25
2019-01-29T15:30:29.205Z,100143.85
2019-01-29T15:32:30.574Z,100144.94
2019-01-29T15:34:31.922Z,100142.56
2019-01-29T15:36:33.420Z,100147.30
2019-01-29T15:38:34.802Z,100151.74
2019-01-29T15:40:36.174Z,100149.07
2019-01-29T15:42:37.623Z,100152.23
2019-01-29T15:44:39.022Z,100153.91
2019-01-29T15:46:40.434Z,100156.59
2019-01-29T15:48:41.804Z,100158.88
2019-01-29T15:50:43.260Z,100159.41
2019-01-29T15:52:48.630Z,100155.85
2019-01-29T15:54:48.068Z,100154.23
2019-01-29T15:56:49.418Z,100155.93
2019-01-29T15:58:50.884Z,100160.55
2019-01-29T16:00:52.234Z,100155.23
2019-01-29T16:02:53.622Z,100159.14
2019-01-29T16:04:55.033Z,100165.25
2019-01-29T16:06:56.398Z,100168.80
2019-01-29T16:08:58.067Z,100161.73
2019-01-29T16:10:59.416Z,100163.09
2019-01-29T16:13:00.895Z,100167.59
2019-01-29T16:15:07.347Z,100166.59
2019-01-29T16:17:08.734Z,100167.95
2019-01-29T16:19:10.216Z,100166.68
2019-01-29T16:21:11.692Z,100169.31
2019-01-29T16:23:13.167Z,100172.06
2019-01-29T16:25:26.336Z,100175.47
2019-01-29T16:27:27.746Z,100178.80
2019-01-29T16:29:29.224Z,100177.73
2019-01-29T16:31:30.781Z,100182.94
2019-01-29T16:33:32.260Z,100175.64
2019-01-29T16:35:39.889Z,100184.60
2019-01-29T16:37:43.048Z,100187.19
2019-01-29T16:39:44.453Z,100183.42
2019-01-29T16:41:45.879Z,100189.17
2019-01-29T16:43:47.353Z,100187.42
2019-01-29T16:45:48.816Z,100191.19
2019-01-29T16:47:50.454Z,100182.97
2019-01-29T16:49:51.860Z,100185.34
2019-01-29T16:51:53.280Z,100186.57
2019-01-29T16:53:54.647Z,100188.73
2019-01-29T16:55:56.051Z,100187.86
2019-01-29T16:57:57.506Z,100188.83
2019-01-29T16:59:58.895Z,100182.56
2019-01-29T17:02:00.274Z,100187.13
2019-01-29T17:04:01.711Z,100187.75
2019-01-29T17:06:03.688Z,100188.02
2019-01-29T17:08:05.264Z,100186.79
2019-01-29T17:10:11.892Z,100184.73
2019-01-29T17:12:13.343Z,100186.14
2019-01-29T17:14:14.722Z,100185.98
2019-01-29T17:16:16.101Z,100191.30
2019-01-29T17:18:17.531Z,100195.06
2019-01-29T17:20:25.670Z,100195.53
2019-01-29T17:22:27.045Z,100188.65
2019-01-29T17:24:28.475Z,100186.58
2019-01-29T17:26:31.112Z,100184.05
2019-01-29T17:28:32.585Z,100184.52
2019-01-29T17:30:40.732Z,100180.77
2019-01-29T17:32:42.099Z,100184.95
2019-01-29T17:34:43.592Z,100184.94
2019-01-29T17:36:44.967Z,100175.29
2019-01-29T17:38:46.424Z,100180.05
2019-01-29T17:40:47.819Z,100176.80
2019-01-29T17:42:49.302Z,100178.68
2019-01-29T17:44:50.737Z,100177.68
2019-01-29T17:46:52.341Z,100173.78
2019-01-29T17:48:53.685Z,100177.59
2019-01-29T17:50:55.217Z,100171.22
2019-01-29T17:52:56.598Z,100173.66
2019-01-29T17:54:57.968Z,100172.92
2019-01-29T17:56:59.405Z,100174.97
2019-01-29T17:59:00.795Z,100172.87
2019-01-29T18:01:03.652Z,100173.92
2019-01-29T18:03:05.897Z,100168.33
2019-01-29T18:05:07.510Z,100174.06
2019-01-29T18:07:08.881Z,100171.11
2019-01-29T18:09:10.283Z,100172.69
2019-01-29T18:11:11.792Z,100175.33
2019-01-29T18:13:13.169Z,100172.16
2019-01-29T18:15:18.167Z,100171.02
2019-01-29T18:17:19.611Z,100175.40
2019-01-29T18:19:20.989Z,100170.46
2019-01-29T18:21:22.404Z,100170.10
2019-01-29T18:23:23.835Z,100171.22
2019-01-29T18:25:25.507Z,100166.75
2019-01-29T18:27:26.902Z,100169.46
2019-01-29T18:29:28.284Z,100166.12
2019-01-29T18:31:29.744Z,100170.20
2019-01-29T18:33:31.129Z,100164.19
2019-01-29T18:35:32.904Z,100166.05
2019-01-29T18:37:34.334Z,100165.50
2019-01-29T18:39:35.718Z,100165.28
2019-01-29T18:41:37.262Z,100168.50
2019-01-29T18:43:38.639Z,100162.02
2019-01-29T18:45:40.122Z,100158.48
2019-01-29T18:47:41.553Z,100158.47
2019-01-29T18:49:42.916Z,100153.59
2019-01-29T18:51:44.266Z,100159.11
2019-01-29T18:53:45.700Z,100158.25
2019-01-29T18:55:47.103Z,100155.17
2019-01-29T18:57:48.476Z,100159.67
2019-01-29T18:59:49.928Z,100156.97
2019-01-29T19:01:51.294Z,100154.67
2019-01-29T19:03:52.697Z,100157.91
2019-01-29T19:05:54.162Z,100152.08
2019-01-29T19:07:55.502Z,100158.16
2019-01-29T19:09:56.919Z,100152.61
2019-01-29T19:11:58.362Z,100153.27
2019-01-29T19:13:59.932Z,100152.83
2019-01-29T19:16:01.306Z,100158.45
2019-01-29T19:18:03.156Z,100151.49
2019-01-29T19:20:09.863Z,100149.23
2019-01-29T19:22:11.223Z,100150.60
2019-01-29T19:24:12.636Z,100150.63
2019-01-29T19:26:14.020Z,100146.75
2019-01-29T19:28:21.803Z,100147.83
2019-01-29T19:30:26.586Z,100149.98
2019-01-29T19:32:27.961Z,100146.31
2019-01-29T19:34:29.328Z,100147.62
2019-01-29T19:36:30.925Z,100146.77
2019-01-29T19:38:32.302Z,100145.03
2019-01-29T19:40:33.677Z,100144.38
2019-01-29T19:42:35.115Z,100145.30
2019-01-29T19:44:36.483Z,100142.98
2019-01-29T19:46:37.857Z,100142.72
2019-01-29T19:48:39.280Z,100137.16
2019-01-29T19:50:40.761Z,100137.06
2019-01-29T19:52:42.338Z,100141.54
2019-01-29T19:54:43.786Z,100134.75
2019-01-29T19:56:45.168Z,100146.89
2019-01-29T19:58:46.551Z,100145.00
2019-01-29T20:00:48.023Z,100137.08
2019-01-29T20:02:49.363Z,100136.75
2019-01-29T20:04:50.811Z,100146.23
2019-01-29T20:06:52.264Z,100144.15
2019-01-29T20:08:53.671Z,100144.30
2019-01-29T20:10:55.196Z,100147.33
2019-01-29T20:12:57.727Z,100142.48
2019-01-29T20:14:59.090Z,100141.19
2019-01-29T20:17:00.545Z,100138.02
2019-01-29T20:19:01.921Z,100147.50
2019-01-29T20:21:03.262Z,100143.02
2019-01-29T20:23:08.045Z,100141.98
2019-01-29T20:25:08.689Z,100142.15
2019-01-29T20:27:10.071Z,100146.79
2019-01-29T20:29:11.645Z,100143.33
2019-01-29T20:31:14.931Z,100140.95
2019-01-29T20:33:16.493Z,100146.41
2019-01-29T20:35:17.938Z,100140.05
2019-01-29T20:37:19.335Z,100135.03
2019-01-29T20:39:20.744Z,100135.53
2019-01-29T20:41:22.180Z,100126.02
2019-01-29T20:43:25.412Z,100132.13
2019-01-29T20:45:26.837Z,100125.06
2019-01-29T20:47:28.277Z,100119.82
2019-01-29T20:49:29.659Z,100123.97
2019-01-29T20:51:31.035Z,100115.56
2019-01-29T20:53:32.486Z,100119.06
2019-01-29T20:55:33.970Z,100118.16
2019-01-29T20:57:35.349Z,100113.69
2019-01-29T20:59:36.782Z,100108.48
2019-01-29T21:01:38.142Z,100116.84
2019-01-29T21:03:39.527Z,100114.22
2019-01-29T21:05:40.990Z,100116.80
2019-01-29T21:07:42.422Z,100116.16
2019-01-29T21:09:43.797Z,100111.46
2019-01-29T21:11:45.376Z,100114.10
2019-01-29T21:13:46.803Z,100111.35
2019-01-29T21:15:48.159Z,100110.56
2019-01-29T21:17:49.984Z,100107.47
2019-01-29T21:19:51.457Z,100111.72
2019-01-29T21:21:52.827Z,100109.82
2019-01-29T21:23:54.269Z,100109.67
2019-01-29T21:25:55.626Z,100107.12
2019-01-29T21:27:56.996Z,100105.08
2019-01-29T21:29:58.455Z,100105.34
2019-01-29T21:31:59.812Z,100096.71
2019-01-29T21:34:01.186Z,100101.69
2019-01-29T21:36:02.823Z,100096.66
2019-01-29T21:38:04.286Z,100088.63
2019-01-29T21:40:09.760Z,100097.30
2019-01-29T21:42:11.215Z,100096.75
2019-01-29T21:44:12.592Z,100094.75
2019-01-29T21:46:13.964Z,100094.47
2019-01-29T21:48:15.382Z,100092.86
2019-01-29T21:50:21.671Z,100090.48
2019-01-29T21:52:23.038Z,100088.48
2019-01-29T21:54:24.647Z,100089.73
2019-01-29T21:56:26.010Z,100085.63
2019-01-29T21:58:27.381Z,100082.28
2019-01-29T22:00:35.858Z,100085.73
2019-01-29T22:02:37.232Z,100089.05
2019-01-29T22:04:38.649Z,100082.59
2019-01-29T22:06:40.037Z,100085.91
2019-01-29T22:08:41.579Z,100086.56
2019-01-29T22:10:43.214Z,100084.95
2019-01-29T22:12:44.689Z,100080.14
2019-01-29T22:14:46.048Z,100076.47
2019-01-29T22:16:47.473Z,100078.80
2019-01-29T22:18:48.844Z,100075.17
2019-01-29T22:20:50.202Z,100075.77
2019-01-29T22:22:51.713Z,100074.97
2019-01-29T22:24:53.077Z,100072.76
2019-01-29T22:26:54.484Z,100073.16
2019-01-29T22:28:55.855Z,100067.92
2019-01-29T22:30:57.231Z,100068.75
2019-01-29T22:32:58.750Z,100064.30
2019-01-29T22:35:00.317Z,100063.03
2019-01-29T22:37:01.676Z,100063.16
2019-01-29T22:39:06.606Z,100057.72
2019-01-29T22:41:08.070Z,100059.48
2019-01-29T22:43:09.442Z,100055.40
2019-01-29T22:45:14.751Z,100056.20
2019-01-29T22:47:16.336Z,100055.03
2019-01-29T22:49:17.707Z,100058.78
2019-01-29T22:51:19.078Z,100056.34
2019-01-29T22:53:20.501Z,100055.61
2019-01-29T22:55:21.866Z,100053.31
2019-01-29T22:57:23.242Z,100052.63
2019-01-29T22:59:33.134Z,100052.64
2019-01-29T23:01:30.950Z,99994.41
2019-01-29T23:03:37.713Z,100049.97
2019-01-29T23:05:39.342Z,100051.52
2019-01-29T23:07:41.193Z,100041.66
2019-01-29T23:09:42.568Z,100040.05
2019-01-29T23:11:44.087Z,100039.57
2019-01-29T23:13:45.448Z,100035.59
2019-01-29T23:15:46.973Z,100038.98
2019-01-29T23:17:48.558Z,100037.23
2019-01-29T23:19:49.937Z,100042.06